createdAt,value
2018-11-21T00:00:22.428Z,17.83
2018-11-21T00:02:50.616Z,19.17
2018-11-21T00:05:18.756Z,20.00
2018-11-21T00:07:46.925Z,20.00
2018-11-21T00:10:15.070Z,20.33
2018-11-21T00:12:47.694Z,19.53
2018-11-21T00:15:15.843Z,18.80
2018-11-21T00:17:44.002Z,20.73
2018-11-21T00:20:12.140Z,18.57
2018-11-21T00:22:40.293Z,17.20
2018-11-21T00:25:08.559Z,19.20
2018-11-21T00:27:36.719Z,20.30
2018-11-21T00:30:06.368Z,20.70
2018-11-21T00:32:34.529Z,24.70
2018-11-21T00:35:02.704Z,22.73
2018-11-21T00:37:30.856Z,24.83
2018-11-21T00:39:59.023Z,20.00
2018-11-21T00:42:27.181Z,22.70
2018-11-21T00:44:55.336Z,19.70
2018-11-21T00:47:23.463Z,23.67
2018-11-21T00:49:51.641Z,21.93
2018-11-21T00:52:19.798Z,22.60
2018-11-21T00:54:47.962Z,19.77
2018-11-21T00:57:16.111Z,22.57
2018-11-21T00:59:44.250Z,23.17
2018-11-21T01:02:12.430Z,23.20
2018-11-21T01:04:40.570Z,27.53
2018-11-21T01:07:08.991Z,20.73
2018-11-21T01:09:37.130Z,22.43
2018-11-21T01:12:05.303Z,26.93
2018-11-21T01:14:33.451Z,22.83
2018-11-21T01:17:01.597Z,21.80
2018-11-21T01:19:29.747Z,21.57
2018-11-21T01:21:57.914Z,26.20
2018-11-21T01:24:26.089Z,22.43
2018-11-21T01:26:54.227Z,20.20
2018-11-21T01:29:22.398Z,24.33
2018-11-21T01:31:50.536Z,23.03
2018-11-21T01:34:18.685Z,21.93
2018-11-21T01:36:46.841Z,19.77
2018-11-21T01:39:15.006Z,22.63
2018-11-21T01:41:43.208Z,21.53
2018-11-21T01:44:11.344Z,19.87
2018-11-21T01:46:39.523Z,19.10
2018-11-21T01:49:07.680Z,19.70
2018-11-21T01:51:35.836Z,21.47
2018-11-21T01:54:04.060Z,19.27
2018-11-21T01:56:32.220Z,19.07
2018-11-21T01:59:00.367Z,21.70
2018-11-21T02:01:28.541Z,22.00
2018-11-21T02:03:56.698Z,19.07
2018-11-21T02:06:24.860Z,18.80
2018-11-21T02:08:53.007Z,24.63
2018-11-21T02:11:21.157Z,28.40
2018-11-21T02:13:49.321Z,23.97
2018-11-21T02:16:17.461Z,21.57
2018-11-21T02:18:46.404Z,21.90
2018-11-21T02:21:14.566Z,23.33
2018-11-21T02:23:42.776Z,24.17
2018-11-21T02:26:10.906Z,18.90
2018-11-21T02:28:39.060Z,24.20
2018-11-21T02:31:07.199Z,22.10
2018-11-21T02:33:35.358Z,24.53
2018-11-21T02:36:03.535Z,22.90
2018-11-21T02:38:31.709Z,22.73
2018-11-21T02:40:59.842Z,18.60
2018-11-21T02:43:28.019Z,18.33
2018-11-21T02:45:56.182Z,17.47
2018-11-21T02:48:24.325Z,17.10
2018-11-21T02:50:52.483Z,19.67
2018-11-21T02:53:20.649Z,22.73
2018-11-21T02:55:48.818Z,24.57
2018-11-21T02:58:17.313Z,20.70
2018-11-21T03:00:45.475Z,21.60
2018-11-21T03:03:13.605Z,23.70
2018-11-21T03:05:41.773Z,24.13
2018-11-21T03:08:09.907Z,18.43
2018-11-21T03:10:38.072Z,19.20
2018-11-21T03:13:06.276Z,17.90
2018-11-21T03:15:34.420Z,17.97
2018-11-21T03:18:02.589Z,18.37
2018-11-21T03:20:30.743Z,20.30
2018-11-21T03:22:58.908Z,20.63
2018-11-21T03:25:27.325Z,18.93
2018-11-21T03:27:55.517Z,19.83
2018-11-21T03:30:23.653Z,24.00
2018-11-21T03:32:51.817Z,17.73
2018-11-21T03:35:19.961Z,20.27
2018-11-21T03:37:48.130Z,17.27
2018-11-21T03:40:16.269Z,21.40
2018-11-21T03:42:44.441Z,23.03
2018-11-21T03:45:13.057Z,22.23
2018-11-21T03:47:41.238Z,20.53
2018-11-21T03:50:10.154Z,29.57
2018-11-21T03:52:38.602Z,24.77
2018-11-21T03:55:07.130Z,19.90
2018-11-21T03:57:35.317Z,20.00
2018-11-21T04:00:03.489Z,15.97
2018-11-21T04:02:31.657Z,17.20
2018-11-21T04:04:59.787Z,16.20
2018-11-21T04:07:27.926Z,18.17
2018-11-21T04:09:56.098Z,17.43
2018-11-21T04:12:24.241Z,19.07
2018-11-21T04:14:52.404Z,22.10
2018-11-21T04:17:21.613Z,17.97
2018-11-21T04:19:48.706Z,19.83
2018-11-21T04:22:16.840Z,25.50
2018-11-21T04:24:45.093Z,26.83
2018-11-21T04:27:13.136Z,22.30
2018-11-21T04:29:41.292Z,21.30
2018-11-21T04:32:10.318Z,16.70
2018-11-21T04:34:38.474Z,21.63
2018-11-21T04:37:06.640Z,23.37
2018-11-21T04:39:34.780Z,16.80
2018-11-21T04:42:02.934Z,24.90
2018-11-21T04:44:31.071Z,22.07
2018-11-21T04:46:59.229Z,20.37
2018-11-21T04:49:27.374Z,20.60
2018-11-21T04:51:55.554Z,17.50
2018-11-21T04:54:23.682Z,18.47
2018-11-21T04:56:51.835Z,19.87
2018-11-21T04:59:19.996Z,21.60
2018-11-21T05:01:48.136Z,17.87
2018-11-21T05:04:16.298Z,16.73
2018-11-21T05:06:44.432Z,18.23
2018-11-21T05:09:12.836Z,18.50
2018-11-21T05:11:41.013Z,14.57
2018-11-21T05:14:09.199Z,24.10
2018-11-21T05:16:37.324Z,17.43
2018-11-21T05:19:05.526Z,17.93
2018-11-21T05:21:33.666Z,19.87
2018-11-21T05:24:01.834Z,17.77
2018-11-21T05:26:29.989Z,20.30
2018-11-21T05:28:58.148Z,20.07
2018-11-21T05:31:26.288Z,20.40
2018-11-21T05:33:54.445Z,16.70
2018-11-21T05:36:22.586Z,19.63
2018-11-21T05:38:50.762Z,22.83
2018-11-21T05:41:18.897Z,15.70
2018-11-21T05:43:47.059Z,19.10
2018-11-21T05:46:15.218Z,16.20
2018-11-21T05:48:43.364Z,19.87
2018-11-21T05:51:11.512Z,18.37
2018-11-21T05:53:39.772Z,17.33
2018-11-21T05:56:07.929Z,17.37
2018-11-21T05:58:36.084Z,15.60
2018-11-21T06:01:04.260Z,19.77
2018-11-21T06:03:32.379Z,19.17
2018-11-21T06:06:00.521Z,20.87
2018-11-21T06:08:28.676Z,20.10
2018-11-21T06:10:56.809Z,17.80
2018-11-21T06:13:24.978Z,19.20
2018-11-21T06:15:54.466Z,19.43
2018-11-21T06:18:22.633Z,18.43
2018-11-21T06:20:51.177Z,19.80
2018-11-21T06:23:19.339Z,17.53
2018-11-21T06:25:47.521Z,15.17
2018-11-21T06:28:15.689Z,17.60
2018-11-21T06:30:44.135Z,20.00
2018-11-21T06:33:12.261Z,18.13
2018-11-21T06:35:40.422Z,17.53
2018-11-21T06:38:08.566Z,18.70
2018-11-21T06:40:36.728Z,19.70
2018-11-21T06:43:04.970Z,18.50
2018-11-21T06:45:33.121Z,20.93
2018-11-21T06:48:01.264Z,20.30
2018-11-21T06:50:29.671Z,18.50
2018-11-21T06:52:58.014Z,17.60
2018-11-21T06:55:26.201Z,21.20
2018-11-21T06:57:54.353Z,17.43
2018-11-21T07:00:22.506Z,19.30
2018-11-21T07:02:50.645Z,17.00
2018-11-21T07:05:18.804Z,18.90
2018-11-21T07:07:47.052Z,20.30
2018-11-21T07:10:16.113Z,18.23
2018-11-21T07:12:44.922Z,19.70
2018-11-21T07:15:13.085Z,21.57
2018-11-21T07:17:41.249Z,19.50
2018-11-21T07:20:10.447Z,16.90
2018-11-21T07:22:38.678Z,17.20
2018-11-21T07:25:08.977Z,19.63
2018-11-21T07:27:37.416Z,22.07
2018-11-21T07:30:07.106Z,20.90
2018-11-21T07:32:35.241Z,18.87
2018-11-21T07:35:03.409Z,16.80
2018-11-21T07:37:31.530Z,18.60
2018-11-21T07:39:59.694Z,22.50
2018-11-21T07:42:27.838Z,22.60
2018-11-21T07:44:56.001Z,19.60
2018-11-21T07:47:26.660Z,22.13
2018-11-21T07:49:52.298Z,28.90
2018-11-21T07:52:20.442Z,24.70
2018-11-21T07:54:48.626Z,26.00
2018-11-21T07:57:56.581Z,22.53
2018-11-21T08:00:48.756Z,21.23
2018-11-21T08:03:17.293Z,22.90
2018-11-21T08:05:50.445Z,23.73
2018-11-21T08:08:36.077Z,24.87
2018-11-21T08:11:21.859Z,25.03
2018-11-21T08:14:27.076Z,27.87
2018-11-21T08:17:20.224Z,21.73
2018-11-21T08:20:07.741Z,25.03
2018-11-21T08:23:01.026Z,22.93
2018-11-21T08:25:46.584Z,24.17
2018-11-21T08:28:22.750Z,27.80
2018-11-21T08:30:51.216Z,20.50
2018-11-21T08:33:19.552Z,25.80
2018-11-21T08:35:47.816Z,24.70
2018-11-21T08:38:16.460Z,25.97
2018-11-21T08:40:44.764Z,19.63
2018-11-21T08:43:12.906Z,28.43
2018-11-21T08:45:43.332Z,23.23
2018-11-21T08:48:11.915Z,24.97
2018-11-21T08:50:40.094Z,24.07
2018-11-21T08:53:08.260Z,23.80
2018-11-21T08:55:36.893Z,20.73
2018-11-21T08:58:05.392Z,26.33
2018-11-21T09:00:33.786Z,33.80
2018-11-21T09:03:02.005Z,21.90
2018-11-21T09:05:30.296Z,21.20
2018-11-21T09:07:58.456Z,23.73
2018-11-21T09:12:54.243Z,22.13
2018-11-21T09:15:22.386Z,23.57
2018-11-21T09:17:50.552Z,25.20
2018-11-21T09:20:18.697Z,23.57
2018-11-21T09:22:46.854Z,24.70
2018-11-21T09:25:15.009Z,19.87
2018-11-21T09:27:43.803Z,28.80
2018-11-21T09:30:13.700Z,24.93
2018-11-21T09:32:41.960Z,26.43
2018-11-21T09:35:11.180Z,23.17
2018-11-21T09:37:39.316Z,23.10
2018-11-21T09:40:08.582Z,26.50
2018-11-21T09:42:36.753Z,24.47
2018-11-21T09:45:05.371Z,22.80
2018-11-21T09:47:33.510Z,20.90
2018-11-21T09:50:01.639Z,19.40
2018-11-21T09:52:29.785Z,23.40
2018-11-21T09:54:57.943Z,23.40
2018-11-21T09:57:26.092Z,19.27
2018-11-21T09:59:54.227Z,22.20
2018-11-21T10:02:40.608Z,19.77
2018-11-21T10:05:08.740Z,19.03
2018-11-21T10:07:39.060Z,18.17
2018-11-21T10:10:07.194Z,18.97
2018-11-21T10:12:35.350Z,19.97
2018-11-21T10:15:03.495Z,20.90
2018-11-21T10:17:31.645Z,20.50
2018-11-21T10:19:59.785Z,21.60
2018-11-21T10:22:27.965Z,18.90
2018-11-21T10:24:56.098Z,17.13
2018-11-21T10:27:24.229Z,19.90
2018-11-21T10:29:52.385Z,17.50
2018-11-21T10:32:20.516Z,17.90
2018-11-21T10:34:48.685Z,17.77
2018-11-21T10:37:16.817Z,19.97
2018-11-21T10:39:44.984Z,19.47
2018-11-21T10:42:13.132Z,19.47
2018-11-21T10:44:41.305Z,18.10
2018-11-21T10:47:09.455Z,18.23
2018-11-21T10:49:37.609Z,19.53
2018-11-21T10:52:05.738Z,18.33
2018-11-21T10:54:33.917Z,19.97
2018-11-21T10:57:02.060Z,20.40
2018-11-21T10:59:30.262Z,19.37
2018-11-21T11:02:22.702Z,16.83
2018-11-21T11:05:10.112Z,22.87
2018-11-21T11:08:03.262Z,21.27
2018-11-21T11:10:53.176Z,18.80
2018-11-21T11:13:38.984Z,20.47
2018-11-21T11:16:21.113Z,18.03
2018-11-21T11:19:08.488Z,17.63
2018-11-21T11:22:04.889Z,20.80
2018-11-21T11:24:58.045Z,22.77
2018-11-21T11:27:45.448Z,19.57
2018-11-21T11:30:47.744Z,19.17
2018-11-21T11:33:32.988Z,22.53
2018-11-21T11:36:18.838Z,17.70
2018-11-21T11:39:09.038Z,18.17
2018-11-21T11:41:54.503Z,18.80
2018-11-21T11:44:40.360Z,17.70
2018-11-21T11:47:26.605Z,17.90
2018-11-21T11:50:12.380Z,21.00
2018-11-21T11:52:57.486Z,19.43
2018-11-21T11:55:47.696Z,21.20
2018-11-21T11:58:35.096Z,20.63
2018-11-21T12:01:21.342Z,16.63
2018-11-21T12:04:09.780Z,17.93
2018-11-21T12:07:15.040Z,17.37
2018-11-21T12:10:06.250Z,18.07
2018-11-21T12:13:05.487Z,23.97
2018-11-21T12:16:02.696Z,18.53
2018-11-21T12:18:56.275Z,17.13
2018-11-21T12:22:01.661Z,19.77
2018-11-21T12:24:39.141Z,21.43
2018-11-21T12:27:35.241Z,18.73
2018-11-21T12:30:22.621Z,19.03
2018-11-21T12:33:10.020Z,23.67
2018-11-21T12:36:09.320Z,25.40
2018-11-21T12:38:57.075Z,21.60
2018-11-21T12:41:42.886Z,23.93
2018-11-21T12:44:28.720Z,20.27
2018-11-21T12:47:22.235Z,23.37
2018-11-21T12:50:12.710Z,18.17
2018-11-21T12:53:03.055Z,18.70
2018-11-21T12:55:50.456Z,16.87
2018-11-21T12:58:43.452Z,19.70
2018-11-21T13:01:24.069Z,19.50
2018-11-21T13:04:05.925Z,19.07
2018-11-21T13:07:11.435Z,17.47
2018-11-21T13:10:11.100Z,17.17
2018-11-21T13:12:54.280Z,19.07
2018-11-21T13:15:53.603Z,18.40
2018-11-21T13:18:39.413Z,18.43
2018-11-21T13:21:20.714Z,20.70
2018-11-21T13:24:06.301Z,18.97
2018-11-21T13:27:02.702Z,20.20
2018-11-21T13:29:50.089Z,19.10
2018-11-21T13:32:36.271Z,21.20
2018-11-21T13:35:22.248Z,18.67
2018-11-21T13:38:00.704Z,20.70
2018-11-21T13:40:46.675Z,17.17
2018-11-21T13:43:39.486Z,21.37
2018-11-21T13:46:32.661Z,24.20
2018-11-21T13:49:18.767Z,20.50
2018-11-21T13:51:56.778Z,18.80
2018-11-21T13:54:42.700Z,21.77
2018-11-21T13:57:10.840Z,20.90
2018-11-21T13:59:38.986Z,22.63
2018-11-21T14:02:07.158Z,19.37
2018-11-21T14:04:35.515Z,22.00
2018-11-21T14:07:03.724Z,19.00
2018-11-21T14:09:31.870Z,22.50
2018-11-21T14:12:00.028Z,19.97
2018-11-21T14:14:28.172Z,19.00
2018-11-21T14:16:56.343Z,21.83
2018-11-21T14:19:24.488Z,21.50
2018-11-21T14:21:55.966Z,21.27
2018-11-21T14:24:20.817Z,23.37
2018-11-21T14:26:49.019Z,19.00
2018-11-21T14:29:17.157Z,21.90
2018-11-21T14:31:45.849Z,24.97
2018-11-21T14:34:14.024Z,23.17
2018-11-21T14:36:42.180Z,20.77
2018-11-21T14:39:11.204Z,20.73
2018-11-21T14:41:40.196Z,24.90
2018-11-21T14:44:08.645Z,24.33
2018-11-21T14:46:36.827Z,23.20
2018-11-21T14:49:05.305Z,22.80
2018-11-21T14:51:33.465Z,22.90
2018-11-21T14:54:01.631Z,23.10
2018-11-21T14:56:29.771Z,21.50
2018-11-21T14:58:57.924Z,25.20
2018-11-21T15:01:26.054Z,35.73
2018-11-21T15:03:54.215Z,24.33
2018-11-21T15:06:22.360Z,25.03
2018-11-21T15:08:50.857Z,24.63
2018-11-21T15:11:18.981Z,21.13
2018-11-21T15:13:47.144Z,21.47
2018-11-21T15:16:15.298Z,22.20
2018-11-21T15:18:43.434Z,22.83
2018-11-21T15:21:16.439Z,19.87
2018-11-21T15:23:39.761Z,20.53
2018-11-21T15:26:07.919Z,23.33
2018-11-21T15:28:36.058Z,24.27
2018-11-21T15:31:04.484Z,24.23
2018-11-21T15:33:32.639Z,23.00
2018-11-21T15:36:00.802Z,23.30
2018-11-21T15:38:28.935Z,21.77
2018-11-21T15:40:57.106Z,22.00
2018-11-21T15:43:25.240Z,20.80
2018-11-21T15:45:53.405Z,19.80
2018-11-21T15:48:21.551Z,24.87
2018-11-21T15:50:49.720Z,23.37
2018-11-21T15:53:17.854Z,23.60
2018-11-21T15:55:46.020Z,24.40
2018-11-21T15:58:14.326Z,25.47
2018-11-21T16:00:42.487Z,21.20
2018-11-21T16:03:11.145Z,22.37
2018-11-21T16:05:39.311Z,22.43
2018-11-21T16:08:10.157Z,25.70
2018-11-21T16:10:39.857Z,24.97
2018-11-21T16:13:08.185Z,23.20
2018-11-21T16:15:43.134Z,24.27
2018-11-21T16:18:11.293Z,25.47
2018-11-21T16:20:39.465Z,24.17
2018-11-21T16:23:07.621Z,24.53
2018-11-21T16:25:36.585Z,26.53
2018-11-21T16:28:05.134Z,25.30
2018-11-21T16:30:33.317Z,25.57
2018-11-21T16:33:01.467Z,26.23
2018-11-21T16:35:29.648Z,25.10
2018-11-21T16:37:57.813Z,26.00
2018-11-21T16:40:27.385Z,29.83
2018-11-21T16:42:57.199Z,25.00
2018-11-21T16:45:27.196Z,24.00
2018-11-21T16:47:55.387Z,27.60
2018-11-21T16:50:23.532Z,27.40
2018-11-21T16:52:51.706Z,26.10
2018-11-21T16:55:21.133Z,26.17
2018-11-21T16:57:49.785Z,28.83
2018-11-21T17:00:22.213Z,27.90
2018-11-21T17:02:50.446Z,28.50
2018-11-21T17:05:19.723Z,27.83
2018-11-21T17:07:47.868Z,28.70
2018-11-21T17:10:17.190Z,25.70
2018-11-21T17:12:45.912Z,28.77
2018-11-21T17:15:15.558Z,29.30
2018-11-21T17:17:43.718Z,24.83
2018-11-21T17:20:14.261Z,28.63
2018-11-21T17:22:42.545Z,37.60
2018-11-21T17:25:12.954Z,29.83
2018-11-21T17:27:41.280Z,29.07
2018-11-21T17:30:10.712Z,30.53
2018-11-21T17:32:38.878Z,26.53
2018-11-21T17:35:07.435Z,28.57
2018-11-21T17:37:35.586Z,29.73
2018-11-21T17:40:04.986Z,25.13
2018-11-21T17:42:33.145Z,28.10
2018-11-21T17:45:01.288Z,30.30
2018-11-21T17:47:29.459Z,28.77
2018-11-21T17:49:57.595Z,33.63
2018-11-21T17:52:25.757Z,26.07
2018-11-21T17:54:53.902Z,26.60
2018-11-21T17:57:27.835Z,25.80
2018-11-21T17:59:50.222Z,23.40
2018-11-21T18:02:18.367Z,24.97
2018-11-21T18:04:46.870Z,32.63
2018-11-21T18:07:15.014Z,32.50
2018-11-21T18:09:43.173Z,29.33
2018-11-21T18:12:11.306Z,27.00
2018-11-21T18:14:39.806Z,27.63
2018-11-21T18:17:07.968Z,24.50
2018-11-21T18:19:36.124Z,24.60
2018-11-21T18:22:04.327Z,29.10
2018-11-21T18:24:32.496Z,27.33
2018-11-21T18:27:00.629Z,28.50
2018-11-21T18:29:29.142Z,24.23
2018-11-21T18:31:57.286Z,25.37
2018-11-21T18:34:25.521Z,24.83
2018-11-21T18:36:53.656Z,29.77
2018-11-21T18:39:21.813Z,27.27
2018-11-21T18:41:49.952Z,23.57
2018-11-21T18:44:18.120Z,23.97
2018-11-21T18:46:46.301Z,25.03
2018-11-21T18:49:14.825Z,24.90
2018-11-21T18:51:42.963Z,23.83
2018-11-21T18:54:11.137Z,28.03
2018-11-21T18:56:45.399Z,21.60
2018-11-21T18:59:23.648Z,20.43
2018-11-21T19:01:51.781Z,23.33
2018-11-21T19:04:19.935Z,20.83
2018-11-21T19:06:48.461Z,20.40
2018-11-21T19:09:16.677Z,22.47
2018-11-21T19:11:44.831Z,24.73
2018-11-21T19:14:13.008Z,23.70
2018-11-21T19:16:41.137Z,27.13
2018-11-21T19:19:09.268Z,26.40
2018-11-21T19:21:37.423Z,23.37
2018-11-21T19:24:05.615Z,27.23
2018-11-21T19:26:33.773Z,25.40
2018-11-21T19:29:01.920Z,27.23
2018-11-21T19:31:30.102Z,26.60
2018-11-21T19:33:58.242Z,26.90
2018-11-21T19:36:26.405Z,30.77
2018-11-21T19:38:54.561Z,31.73
2018-11-21T19:41:22.720Z,32.80
2018-11-21T19:43:50.862Z,28.83
2018-11-21T19:46:19.041Z,26.20
2018-11-21T19:48:47.175Z,24.33
2018-11-21T19:51:15.344Z,30.70
2018-11-21T19:53:43.783Z,25.70
2018-11-21T19:56:11.946Z,22.13
2018-11-21T19:58:40.079Z,26.30
2018-11-21T20:01:08.236Z,24.97
2018-11-21T20:03:36.390Z,28.90
2018-11-21T20:06:04.748Z,26.50
2018-11-21T20:08:32.908Z,26.20
2018-11-21T20:11:01.063Z,26.10
2018-11-21T20:13:30.018Z,25.23
2018-11-21T20:15:58.150Z,28.53
2018-11-21T20:18:26.354Z,32.23
2018-11-21T20:20:54.497Z,23.50
2018-11-21T20:23:22.663Z,25.30
2018-11-21T20:25:50.797Z,26.70
2018-11-21T20:28:18.940Z,25.70
2018-11-21T20:30:47.131Z,26.17
2018-11-21T20:33:15.289Z,27.73
2018-11-21T20:35:43.486Z,25.80
2018-11-21T20:38:11.997Z,25.90
2018-11-21T20:40:40.591Z,24.30
2018-11-21T20:43:08.759Z,27.10
2018-11-21T20:45:36.916Z,25.77
2018-11-21T20:48:05.214Z,22.13
2018-11-21T20:50:33.357Z,26.97
2018-11-21T20:53:01.514Z,23.10
2018-11-21T20:55:30.805Z,24.70
2018-11-21T20:57:58.972Z,20.57
2018-11-21T21:00:28.494Z,21.10
2018-11-21T21:02:56.652Z,22.03
2018-11-21T21:05:25.596Z,21.50
2018-11-21T21:07:53.753Z,24.67
2018-11-21T21:10:26.174Z,24.90
2018-11-21T21:12:54.318Z,21.20
2018-11-21T21:15:22.485Z,24.13
2018-11-21T21:17:51.077Z,25.83
2018-11-21T21:20:26.508Z,28.37
2018-11-21T21:22:56.424Z,24.77
2018-11-21T21:25:26.130Z,24.37
2018-11-21T21:27:54.265Z,28.50
2018-11-21T21:30:32.900Z,26.27
2018-11-21T21:33:01.155Z,27.10
2018-11-21T21:35:30.580Z,25.20
2018-11-21T21:37:59.078Z,22.93
2018-11-21T21:40:27.236Z,26.70
2018-11-21T21:42:55.390Z,24.40
2018-11-21T21:45:24.858Z,25.10
2018-11-21T21:47:53.007Z,28.20
2018-11-21T21:50:22.835Z,23.00
2018-11-21T21:52:50.972Z,24.47
2018-11-21T21:55:20.183Z,26.87
2018-11-21T21:57:48.327Z,21.97
2018-11-21T22:00:18.072Z,24.70
2018-11-21T22:02:46.667Z,33.57
2018-11-21T22:05:14.844Z,25.53
2018-11-21T22:07:43.322Z,26.63
2018-11-21T22:10:12.766Z,23.90
2018-11-21T22:12:41.021Z,24.70
2018-11-21T22:15:32.631Z,23.80
2018-11-21T22:18:02.456Z,26.40
2018-11-21T22:20:30.621Z,24.63
2018-11-21T22:22:58.744Z,24.87
2018-11-21T22:25:26.904Z,24.80
2018-11-21T22:27:55.038Z,22.37
2018-11-21T22:30:23.340Z,23.73
2018-11-21T22:32:52.058Z,24.20
2018-11-21T22:35:24.991Z,24.27
2018-11-21T22:37:51.444Z,24.83
2018-11-21T22:40:19.174Z,21.77
2018-11-21T22:42:47.340Z,22.37
2018-11-21T22:45:16.841Z,24.30
2018-11-21T22:47:45.065Z,21.50
2018-11-21T22:50:14.881Z,24.43
2018-11-21T22:52:43.112Z,25.73
2018-11-21T22:55:11.829Z,25.27
2018-11-21T22:57:40.230Z,26.27
2018-11-21T23:00:19.661Z,20.30
2018-11-21T23:02:47.884Z,24.03
2018-11-21T23:05:16.052Z,22.33
2018-11-21T23:07:45.368Z,20.97
2018-11-21T23:10:14.717Z,22.97
2018-11-21T23:12:42.906Z,22.47
2018-11-21T23:15:11.732Z,22.93
2018-11-21T23:17:39.908Z,24.03
2018-11-21T23:20:09.315Z,21.10
2018-11-21T23:22:37.478Z,23.00
2018-11-21T23:25:06.392Z,21.47
2018-11-21T23:27:34.566Z,26.10
2018-11-21T23:30:02.699Z,21.20
2018-11-21T23:32:31.042Z,22.57
2018-11-21T23:34:59.311Z,23.03
2018-11-21T23:37:28.234Z,22.20
2018-11-21T23:39:56.367Z,19.00
2018-11-21T23:42:24.527Z,23.97
2018-11-21T23:44:52.669Z,20.97
2018-11-21T23:47:20.832Z,23.63
2018-11-21T23:49:48.974Z,22.67
2018-11-21T23:52:17.130Z,23.07
2018-11-21T23:54:45.280Z,23.40
2018-11-21T23:57:16.301Z,21.27
2018-11-21T23:59:41.595Z,22.50
